This is the latest recevied weather packets stored in our database for station/object JS2WAD-13. If no packets are shown the sender has not sent any weather packets the latest 1 day(s).
| Time | Temp. | Humidity | Pressure | Rain* | Wind** | Luminosity | Snow |
|---|---|---|---|---|---|---|---|
| 1836274784 | 25.56° C | 80% | 904.4 hPa | 0 mm | 0 m/s | 70 W/m² | - |
| 1836274484 | 25.56° C | 80% | 904.4 hPa | 0 mm | 0 m/s | 88 W/m² | - |
| 1836274334 | 25.56° C | 80% | 904.2 hPa | 0 mm | 0 m/s | 76 W/m² | - |
| 1836274184 | 25.56° C | 81% | 904.7 hPa | 0 mm | 0 m/s | 74 W/m² | - |
| 1836273884 | 25.56° C | 81% | 904.8 hPa | 0 mm | 0 m/s | 120 W/m² | - |
| 1778032281 | 17.22° C | 85% | 912 hPa | 0 mm | 0 m/s | 56 W/m² | - |
| 1778031981 | 17.22° C | 86% | 912 hPa | 0 mm | 0 m/s | 91 W/m² | - |
| 1778031681 | 17.22° C | 85% | 912 hPa | 0 mm | 0.45 m/s, 41° | 142 W/m² | - |
| 1778031381 | 17.22° C | 86% | 912.2 hPa | 0 mm | 0.45 m/s, 41° | 83 W/m² | - |
| 1778031081 | 17.22° C | 87% | 912.1 hPa | 0 mm | 0.89 m/s, 40° | 98 W/m² | - |
| 1778030781 | 17.22° C | 85% | 912.2 hPa | 0 mm | 0.89 m/s, 33° | 120 W/m² | - |
| 1778030481 | 17.22° C | 86% | 912.1 hPa | 0 mm | 0.45 m/s, 37° | 125 W/m² | - |
| 1778030181 | 17.78° C | 85% | 912.2 hPa | 0 mm | 0 m/s | 105 W/m² | - |
| 1778029881 | 17.78° C | 86% | 912.3 hPa | 0 mm | 0 m/s | 77 W/m² | - |
| 1778029581 | 17.78° C | 86% | 912.3 hPa | 0 mm | 0 m/s | 60 W/m² | - |
| 1778029281 | 17.78° C | 85% | 912.4 hPa | 0 mm | 0 m/s | 44 W/m² | - |
| 1778028981 | 17.78° C | 88% | 912.3 hPa | 0 mm | 0 m/s | 62 W/m² | - |
| 1778028681 | 17.22° C | 88% | 912.4 hPa | 0 mm | 0 m/s | 118 W/m² | - |
| 1778028381 | 17.22° C | 88% | 912.5 hPa | 0 mm | 0 m/s | 160 W/m² | - |
| 1778028081 | 17.22° C | 88% | 912.5 hPa | 0 mm | 0 m/s | 199 W/m² | - |
| 1778027781 | 17.22° C | 88% | 912.6 hPa | 0 mm | 0 m/s | 146 W/m² | - |
| 1778027481 | 17.22° C | 88% | 912.5 hPa | 0 mm | 0.45 m/s, 35° | 114 W/m² | - |
| 1778027181 | 16.67° C | 87% | 912.6 hPa | 0 mm | 0.45 m/s, 35° | 100 W/m² | - |
| 1778026881 | 16.67° C | 88% | 912.6 hPa | 0 mm | 0.45 m/s, 36° | 135 W/m² | - |
| 1778026581 | 16.67° C | 88% | 912.6 hPa | 0 mm | 0.45 m/s, 38° | 165 W/m² | - |
* Rain latest hour (hover to see other rain measurements)
** Current wind speed in m/s (hover to see current wind gust speed)